createdAt,value
2017-12-10T00:00:45.769Z,73.56
2017-12-10T00:03:17.432Z,73.77
2017-12-10T00:05:46.469Z,74.34
2017-12-10T00:08:16.322Z,74.14
2017-12-10T00:10:45.385Z,74.47
2017-12-10T00:13:18.005Z,74.81
2017-12-10T00:15:47.142Z,75.35
2017-12-10T00:18:19.637Z,75.64
2017-12-10T00:20:48.680Z,75.73
2017-12-10T00:23:18.714Z,75.60
2017-12-10T00:25:47.822Z,75.96
2017-12-10T00:28:18.962Z,76.64
2017-12-10T00:30:48.997Z,76.83
2017-12-10T00:33:29.021Z,76.73
2017-12-10T00:35:58.222Z,77.19
2017-12-10T00:43:40.991Z,77.15
2017-12-10T00:46:10.048Z,75.98
2017-12-10T00:48:40.132Z,75.84
2017-12-10T00:51:09.184Z,75.45
2017-12-10T00:53:39.189Z,75.67
2017-12-10T00:56:10.186Z,75.80
2017-12-10T00:58:41.126Z,75.73
2017-12-10T01:01:10.176Z,75.80
2017-12-10T01:03:41.138Z,75.61
2017-12-10T01:06:17.478Z,75.68
2017-12-10T01:08:46.518Z,75.41
2017-12-10T01:11:24.817Z,75.44
2017-12-10T01:13:53.873Z,75.66
2017-12-10T01:16:26.758Z,76.05
2017-12-10T01:18:55.862Z,76.19
2017-12-10T01:21:32.266Z,76.19
2017-12-10T01:26:44.723Z,76.17
2017-12-10T01:29:13.760Z,75.85
2017-12-10T01:31:42.797Z,75.71
2017-12-10T01:36:49.423Z,75.16
2017-12-10T01:39:18.474Z,75.21
2017-12-10T01:41:47.521Z,75.27
2017-12-10T01:46:52.174Z,75.21
2017-12-10T01:49:24.679Z,75.52
2017-12-10T01:51:53.723Z,75.53
2017-12-10T01:57:12.967Z,75.75
2017-12-10T01:59:42.017Z,76.02
2017-12-10T02:02:11.066Z,76.75
2017-12-10T02:04:43.678Z,76.35
2017-12-10T02:07:18.670Z,75.60
2017-12-10T02:09:47.776Z,74.51
2017-12-10T02:12:18.750Z,73.85
2017-12-10T02:14:47.802Z,74.04
2017-12-10T02:19:53.038Z,74.47
2017-12-10T02:22:35.743Z,73.88
2017-12-10T02:25:05.697Z,74.02
2017-12-10T02:27:34.774Z,74.37
2017-12-10T02:30:03.800Z,74.70
2017-12-10T02:32:41.935Z,74.70
2017-12-10T02:35:18.694Z,74.16
2017-12-10T02:37:47.768Z,74.24
2017-12-10T02:40:16.825Z,73.91
2017-12-10T02:42:45.875Z,73.56
2017-12-10T02:45:22.492Z,73.74
2017-12-10T02:47:51.546Z,73.28
2017-12-10T02:50:20.594Z,72.63
2017-12-10T02:52:49.655Z,72.55
2017-12-10T02:58:30.689Z,72.03
2017-12-10T03:00:59.721Z,71.99
2017-12-10T03:03:37.813Z,71.85
2017-12-10T03:08:44.566Z,72.49
2017-12-10T03:11:18.139Z,72.36
2017-12-10T03:13:51.002Z,72.57
2017-12-10T03:16:20.068Z,72.39
2017-12-10T03:18:49.101Z,72.36
2017-12-10T03:21:18.149Z,72.50
2017-12-10T03:23:47.206Z,72.48
2017-12-10T03:26:18.246Z,72.87
2017-12-10T03:28:47.283Z,73.16
2017-12-10T03:31:16.362Z,73.90
2017-12-10T03:33:45.429Z,73.69
2017-12-10T03:36:25.402Z,73.60
2017-12-10T03:38:54.471Z,73.72
2017-12-10T03:41:28.955Z,73.75
2017-12-10T03:43:58.021Z,73.90
2017-12-10T03:46:29.032Z,74.51
2017-12-10T03:48:58.091Z,74.58
2017-12-10T03:51:29.107Z,74.74
2017-12-10T03:54:02.653Z,74.89
2017-12-10T03:56:31.694Z,75.00
2017-12-10T03:59:00.785Z,75.33
2017-12-10T04:01:30.809Z,75.63
2017-12-10T04:04:03.692Z,75.88
2017-12-10T04:06:32.826Z,75.81
2017-12-10T04:09:09.079Z,76.22
2017-12-10T04:11:41.590Z,76.07
2017-12-10T04:14:12.620Z,76.25
2017-12-10T04:16:41.671Z,76.03
2017-12-10T04:19:10.737Z,75.53
2017-12-10T04:21:40.692Z,75.42
2017-12-10T04:24:09.734Z,75.11
2017-12-10T04:26:40.697Z,74.84
2017-12-10T04:29:09.753Z,74.99
2017-12-10T04:31:39.694Z,75.23
2017-12-10T04:34:08.749Z,75.35
2017-12-10T04:36:44.273Z,75.23
2017-12-10T04:39:14.218Z,75.20
2017-12-10T04:41:48.536Z,75.08
2017-12-10T04:44:17.603Z,75.09
2017-12-10T04:46:48.793Z,74.49
2017-12-10T04:49:17.839Z,74.17
2017-12-10T04:51:47.871Z,74.40
2017-12-10T04:54:16.897Z,74.60
2017-12-10T04:56:46.002Z,74.75
2017-12-10T04:59:15.054Z,75.43
2017-12-10T05:01:47.908Z,75.54
2017-12-10T05:04:16.955Z,75.66
2017-12-10T05:06:50.618Z,75.33
2017-12-10T05:09:19.671Z,75.33
2017-12-10T05:12:02.150Z,75.25
2017-12-10T05:14:31.210Z,74.80
2017-12-10T05:17:04.081Z,74.56
2017-12-10T05:19:37.623Z,74.52
2017-12-10T05:22:06.672Z,74.78
2017-12-10T05:24:44.821Z,74.61
2017-12-10T05:27:13.901Z,74.30
2017-12-10T05:29:42.898Z,74.12
2017-12-10T05:32:11.938Z,72.91
2017-12-10T05:34:44.555Z,72.49
2017-12-10T05:37:13.631Z,73.02
2017-12-10T05:39:42.678Z,73.72
2017-12-10T05:42:11.715Z,74.21
2017-12-10T05:44:40.758Z,74.79
2017-12-10T05:47:09.819Z,75.24
2017-12-10T05:49:38.905Z,75.45
2017-12-10T05:52:08.846Z,75.99
2017-12-10T05:54:37.921Z,76.25
2017-12-10T05:57:06.970Z,76.34
2017-12-10T05:59:36.026Z,76.68
2017-12-10T06:02:05.093Z,76.44
2017-12-10T06:04:34.122Z,76.89
2017-12-10T06:07:03.172Z,76.32
2017-12-10T06:09:32.218Z,76.07
2017-12-10T06:12:01.281Z,76.24
2017-12-10T06:14:32.312Z,75.93
2017-12-10T06:17:03.253Z,76.16
2017-12-10T06:19:37.538Z,76.06
2017-12-10T06:22:09.545Z,75.50
2017-12-10T06:27:13.815Z,75.55
2017-12-10T06:29:42.862Z,75.53
2017-12-10T06:32:11.917Z,74.72
2017-12-10T06:34:41.176Z,73.96
2017-12-10T06:37:10.226Z,74.00
2017-12-10T06:39:39.269Z,73.47
2017-12-10T06:42:08.374Z,72.69
2017-12-10T06:44:38.400Z,72.18
2017-12-10T06:47:07.447Z,72.42
2017-12-10T06:49:36.525Z,72.91
2017-12-10T06:52:05.537Z,73.08
2017-12-10T06:54:34.611Z,73.46
2017-12-10T06:57:03.677Z,73.09
2017-12-10T06:59:32.711Z,72.89
2017-12-10T07:02:01.802Z,72.90
2017-12-10T07:04:36.527Z,72.52
2017-12-10T07:07:05.882Z,72.10
2017-12-10T07:09:39.725Z,72.47
2017-12-10T07:12:08.806Z,72.08
2017-12-10T07:14:48.454Z,71.46
2017-12-10T07:17:17.534Z,71.29
2017-12-10T07:19:46.612Z,70.81
2017-12-10T07:22:15.667Z,70.61
2017-12-10T07:24:50.306Z,70.14
2017-12-10T07:27:19.344Z,69.47
2017-12-10T07:29:50.435Z,69.24
2017-12-10T07:32:19.494Z,68.38
2017-12-10T07:34:48.544Z,68.14
2017-12-10T07:37:17.623Z,68.68
2017-12-10T07:39:56.346Z,67.65
2017-12-10T07:42:26.374Z,66.11
2017-12-10T07:45:03.101Z,64.92
2017-12-10T07:50:10.358Z,63.31
2017-12-10T07:55:17.485Z,61.42
2017-12-10T07:58:00.246Z,62.75
2017-12-10T08:00:29.290Z,61.07
2017-12-10T08:02:58.345Z,61.76
2017-12-10T08:05:45.830Z,61.51
2017-12-10T08:08:14.872Z,62.98
2017-12-10T08:10:54.754Z,60.35
2017-12-10T08:13:24.732Z,61.54
2017-12-10T08:16:02.562Z,60.84
2017-12-10T08:18:39.515Z,60.11
2017-12-10T08:21:08.598Z,60.87
2017-12-10T08:23:37.681Z,59.95
2017-12-10T08:26:06.740Z,58.71
2017-12-10T08:28:46.597Z,58.25
2017-12-10T08:31:15.676Z,57.24
2017-12-10T08:33:55.315Z,56.93
2017-12-10T08:36:39.088Z,55.27
2017-12-10T08:39:08.163Z,54.92
2017-12-10T08:41:41.111Z,55.90
2017-12-10T08:44:10.620Z,52.23
2017-12-10T08:46:43.966Z,51.75
2017-12-10T08:49:13.031Z,50.70
2017-12-10T08:51:50.581Z,52.62
2017-12-10T08:54:19.654Z,51.69
2017-12-10T08:56:50.603Z,49.11
2017-12-10T08:59:19.654Z,51.51
2017-12-10T09:01:48.723Z,54.65
2017-12-10T09:04:17.750Z,51.79
2017-12-10T09:06:46.787Z,53.95
2017-12-10T09:09:16.729Z,48.19
2017-12-10T09:11:47.717Z,49.72
2017-12-10T09:14:16.771Z,51.40
2017-12-10T09:16:53.475Z,49.31
2017-12-10T09:19:22.586Z,49.11
2017-12-10T09:21:59.803Z,46.64
2017-12-10T09:24:28.866Z,52.12
2017-12-10T09:26:58.804Z,47.85
2017-12-10T09:29:27.866Z,47.23
2017-12-10T09:31:58.836Z,46.36
2017-12-10T09:37:03.726Z,47.07
2017-12-10T09:39:36.250Z,46.95
2017-12-10T09:42:05.339Z,48.71
2017-12-10T09:44:37.658Z,45.92
2017-12-10T09:47:06.691Z,44.39
2017-12-10T09:49:35.730Z,47.35
2017-12-10T09:52:04.766Z,44.65
2017-12-10T09:54:34.705Z,44.52
2017-12-10T09:57:03.746Z,44.94
2017-12-10T09:59:33.746Z,45.34
2017-12-10T10:02:02.790Z,45.56
2017-12-10T10:07:07.155Z,46.60
2017-12-10T10:09:57.873Z,44.56
2017-12-10T10:12:27.921Z,44.07
2017-12-10T10:17:56.119Z,44.29
2017-12-10T10:20:25.171Z,43.75
2017-12-10T10:22:58.881Z,45.28
2017-12-10T10:25:29.820Z,46.80
2017-12-10T10:27:59.661Z,43.92
2017-12-10T10:30:56.982Z,44.34
2017-12-10T10:33:26.097Z,46.02
2017-12-10T10:35:55.273Z,44.99
2017-12-10T10:38:24.389Z,44.09
2017-12-10T10:40:58.959Z,46.54
2017-12-10T10:43:28.029Z,46.69
2017-12-10T10:45:59.030Z,44.36
2017-12-10T10:48:45.324Z,45.10
2017-12-10T10:51:14.395Z,43.81
2017-12-10T10:53:49.332Z,45.46
2017-12-10T10:56:18.401Z,43.95
2017-12-10T10:58:53.269Z,44.43
2017-12-10T11:01:53.775Z,45.29
2017-12-10T11:04:26.242Z,45.74
2017-12-10T11:06:56.074Z,43.73
2017-12-10T11:09:25.223Z,45.07
2017-12-10T11:11:54.439Z,44.92
2017-12-10T11:14:29.352Z,44.81
2017-12-10T11:17:01.285Z,46.55
2017-12-10T11:19:34.530Z,46.00
2017-12-10T11:22:12.593Z,46.27
2017-12-10T11:24:42.674Z,47.01
2017-12-10T11:27:12.029Z,46.25
2017-12-10T11:32:18.575Z,47.37
2017-12-10T11:34:47.679Z,49.00
2017-12-10T11:37:16.907Z,47.12
2017-12-10T11:39:58.214Z,47.21
2017-12-10T11:42:27.259Z,50.27
2017-12-10T11:44:56.289Z,51.65
2017-12-10T11:47:25.341Z,53.51
2017-12-10T11:50:02.043Z,57.56
2017-12-10T11:52:32.069Z,65.47
2017-12-10T11:55:02.054Z,69.70
2017-12-10T11:57:35.270Z,69.70
2017-12-10T12:02:55.338Z,70.03
2017-12-10T12:05:26.183Z,71.97
2017-12-10T12:10:32.536Z,72.60
2017-12-10T12:13:01.676Z,72.82
2017-12-10T12:18:07.828Z,73.87
2017-12-10T12:20:38.080Z,74.01
2017-12-10T12:23:07.102Z,77.04
2017-12-10T12:26:03.002Z,77.32
2017-12-10T12:28:32.993Z,78.25
2017-12-10T12:31:02.149Z,76.58
2017-12-10T12:33:32.092Z,76.71
2017-12-10T12:36:01.137Z,76.74
2017-12-10T12:41:07.354Z,82.14
2017-12-10T12:43:36.494Z,81.28
2017-12-10T12:46:05.569Z,82.46
2017-12-10T12:48:34.649Z,82.91
2017-12-10T12:51:04.504Z,82.50
2017-12-10T12:56:10.498Z,82.50
2017-12-10T12:58:39.528Z,83.38
2017-12-10T13:01:14.075Z,79.17
2017-12-10T13:06:18.947Z,82.70
2017-12-10T13:08:49.001Z,81.14
2017-12-10T13:11:18.133Z,78.86
2017-12-10T13:16:30.557Z,79.67
2017-12-10T13:21:37.898Z,81.49
2017-12-10T13:24:07.599Z,82.38
2017-12-10T13:26:50.026Z,80.53
2017-12-10T13:29:20.009Z,82.95
2017-12-10T13:31:50.540Z,81.54
2017-12-10T13:34:21.202Z,82.04
2017-12-10T13:36:57.638Z,81.82
2017-12-10T13:42:05.663Z,81.08
2017-12-10T13:44:34.800Z,83.00
2017-12-10T13:47:04.012Z,83.85
2017-12-10T13:49:35.147Z,81.49
2017-12-10T13:52:04.207Z,82.15
2017-12-10T13:54:33.326Z,79.65
2017-12-10T13:57:02.352Z,82.31
2017-12-10T13:59:31.384Z,82.15
2017-12-10T14:02:00.462Z,81.98
2017-12-10T14:04:30.487Z,81.23
2017-12-10T14:06:59.635Z,84.17
2017-12-10T14:09:28.688Z,82.06
2017-12-10T14:11:57.805Z,80.60
2017-12-10T14:14:28.980Z,81.51
2017-12-10T14:16:58.290Z,83.33
2017-12-10T14:19:27.478Z,83.51
2017-12-10T14:21:56.868Z,79.66
2017-12-10T14:24:25.914Z,82.29
2017-12-10T14:26:54.964Z,83.95
2017-12-10T14:32:00.442Z,82.74
2017-12-10T14:34:30.426Z,84.30
2017-12-10T14:37:00.370Z,82.41
2017-12-10T14:39:29.457Z,81.94
2017-12-10T14:44:35.660Z,82.20
2017-12-10T14:49:41.148Z,84.55
2017-12-10T14:52:10.300Z,82.84
2017-12-10T14:54:39.346Z,85.08
2017-12-10T14:57:08.400Z,85.91
2017-12-10T14:59:37.459Z,84.94
2017-12-10T15:02:09.977Z,86.38
2017-12-10T15:04:39.076Z,84.09
2017-12-10T15:09:43.325Z,87.70
2017-12-10T15:12:25.974Z,89.12
2017-12-10T15:14:55.015Z,88.08
2017-12-10T15:17:25.977Z,88.44
2017-12-10T15:20:28.404Z,87.36
2017-12-10T15:25:33.939Z,88.67
2017-12-10T15:28:08.396Z,90.17
2017-12-10T15:30:37.499Z,90.35
2017-12-10T15:33:19.091Z,90.66
2017-12-10T15:35:51.760Z,91.21
2017-12-10T15:38:29.470Z,92.12
2017-12-10T15:41:00.632Z,91.27
2017-12-10T15:43:29.681Z,92.01
2017-12-10T15:46:03.100Z,91.93
2017-12-10T15:48:33.425Z,92.39
2017-12-10T15:51:04.627Z,91.89
2017-12-10T15:56:21.075Z,92.76
2017-12-10T15:58:50.103Z,93.34
2017-12-10T16:01:29.232Z,93.67
2017-12-10T16:03:58.742Z,93.59
2017-12-10T16:09:12.099Z,94.60
2017-12-10T16:11:43.181Z,93.88
2017-12-10T16:16:50.992Z,93.38
2017-12-10T16:19:22.266Z,93.43
2017-12-10T16:21:51.378Z,93.15
2017-12-10T16:26:58.517Z,92.37
2017-12-10T16:35:10.039Z,91.22
2017-12-10T16:37:39.110Z,90.57
2017-12-10T16:45:50.201Z,89.42
2017-12-10T16:48:27.039Z,88.17
2017-12-10T16:50:56.081Z,87.72
2017-12-10T16:53:40.028Z,87.12
2017-12-10T16:56:35.283Z,86.44
2017-12-10T16:59:04.716Z,85.18
2017-12-10T17:01:34.518Z,84.75
2017-12-10T17:06:39.706Z,84.05
2017-12-10T17:11:43.957Z,85.38
2017-12-10T17:16:48.552Z,83.62
2017-12-10T17:21:53.770Z,84.04
2017-12-10T17:24:30.651Z,85.20
2017-12-10T17:26:59.840Z,84.04
2017-12-10T17:29:40.399Z,83.65
2017-12-10T17:32:13.174Z,83.81
2017-12-10T17:34:42.586Z,84.15
2017-12-10T17:37:19.799Z,83.54
2017-12-10T17:39:48.869Z,83.36
2017-12-10T17:42:25.518Z,83.50
2017-12-10T17:44:54.695Z,84.19
2017-12-10T17:47:40.953Z,84.76
2017-12-10T17:50:10.895Z,85.12
2017-12-10T17:55:43.637Z,86.26
2017-12-10T18:00:48.190Z,86.13
2017-12-10T18:05:56.187Z,86.16
2017-12-10T18:08:25.212Z,86.36
2017-12-10T18:13:41.880Z,84.99
2017-12-10T18:16:10.932Z,85.02
2017-12-10T18:18:39.954Z,85.04
2017-12-10T18:21:09.070Z,84.50
2017-12-10T18:23:38.126Z,82.99
2017-12-10T18:26:07.258Z,81.59
2017-12-10T18:31:12.329Z,81.25
2017-12-10T18:33:42.314Z,80.57
2017-12-10T18:36:11.544Z,80.63
2017-12-10T18:38:40.779Z,79.96
2017-12-10T18:41:09.877Z,80.20
2017-12-10T18:43:39.380Z,79.89
2017-12-10T18:46:08.740Z,79.73
2017-12-10T18:51:14.759Z,78.16
2017-12-10T18:53:48.606Z,78.17
2017-12-10T18:56:19.455Z,78.17
2017-12-10T18:58:56.975Z,77.85
2017-12-10T19:01:28.026Z,77.86
2017-12-10T19:06:34.336Z,77.91
2017-12-10T19:09:03.972Z,77.26
2017-12-10T19:11:35.382Z,77.17
2017-12-10T19:14:06.345Z,77.46
2017-12-10T19:16:36.374Z,77.59
2017-12-10T19:19:06.493Z,78.07
2017-12-10T19:24:06.535Z,77.39
2017-12-10T19:26:35.627Z,77.18
2017-12-10T19:29:05.886Z,77.09
2017-12-10T19:31:35.143Z,77.62
2017-12-10T19:34:04.848Z,77.59
2017-12-10T19:39:09.537Z,78.21
2017-12-10T19:41:39.524Z,78.17
2017-12-10T19:44:09.456Z,77.02
2017-12-10T19:46:39.290Z,77.79
2017-12-10T19:49:08.628Z,77.71
2017-12-10T19:51:45.305Z,77.38
2017-12-10T19:54:14.368Z,77.22
2017-12-10T19:56:44.634Z,77.44
2017-12-10T19:59:14.167Z,77.21
2017-12-10T20:01:46.375Z,77.67
2017-12-10T20:04:15.932Z,77.27
2017-12-10T20:09:20.297Z,78.31
2017-12-10T20:11:49.613Z,77.56
2017-12-10T20:14:18.717Z,76.83
2017-12-10T20:16:49.844Z,76.20
2017-12-10T20:19:18.929Z,76.14
2017-12-10T20:21:47.965Z,75.96
2017-12-10T20:24:17.005Z,76.08
2017-12-10T20:26:50.064Z,76.01
2017-12-10T20:29:19.094Z,75.91
2017-12-10T20:34:25.581Z,75.82
2017-12-10T20:39:30.191Z,77.03
2017-12-10T20:42:01.122Z,76.51
2017-12-10T20:44:56.719Z,77.00
2017-12-10T20:47:25.753Z,76.67
2017-12-10T20:49:54.814Z,76.40
2017-12-10T20:54:59.126Z,77.14
2017-12-10T20:57:30.349Z,77.59
2017-12-10T21:00:00.292Z,77.77
2017-12-10T21:02:37.289Z,77.91
2017-12-10T21:05:08.578Z,78.49
2017-12-10T21:07:39.732Z,79.07
2017-12-10T21:10:08.795Z,79.20
2017-12-10T21:15:13.958Z,80.75
2017-12-10T21:17:45.788Z,81.05
2017-12-10T21:20:15.094Z,81.71
2017-12-10T21:22:44.068Z,82.31
2017-12-10T21:25:13.108Z,82.25
2017-12-10T21:27:42.149Z,81.95
2017-12-10T21:30:12.094Z,81.46
2017-12-10T21:32:43.094Z,80.66
2017-12-10T21:35:12.158Z,80.63
2017-12-10T21:37:41.285Z,80.42
2017-12-10T21:40:10.363Z,80.96
2017-12-10T21:45:16.226Z,81.56
2017-12-10T21:47:46.291Z,81.24
2017-12-10T21:50:15.482Z,80.66
2017-12-10T21:52:44.516Z,80.65
2017-12-10T21:55:13.594Z,78.75
2017-12-10T21:57:42.646Z,77.72
2017-12-10T22:00:11.679Z,76.57
2017-12-10T22:02:40.722Z,76.01
2017-12-10T22:05:09.747Z,75.34
2017-12-10T22:07:38.807Z,73.76
2017-12-10T22:10:07.851Z,74.07
2017-12-10T22:12:36.885Z,72.31
2017-12-10T22:15:05.923Z,72.37
2017-12-10T22:17:35.014Z,70.76
2017-12-10T22:20:04.050Z,70.53
2017-12-10T22:22:33.097Z,71.12
2017-12-10T22:25:02.158Z,69.37
2017-12-10T22:27:31.185Z,70.54
2017-12-10T22:30:03.469Z,69.41
2017-12-10T22:32:32.509Z,70.21
2017-12-10T22:35:01.574Z,70.14
2017-12-10T22:37:30.586Z,70.38
2017-12-10T22:40:01.746Z,69.41
2017-12-10T22:42:30.778Z,70.31
2017-12-10T22:45:05.729Z,69.41
2017-12-10T22:47:34.775Z,68.82
2017-12-10T22:50:05.036Z,70.36
2017-12-10T22:52:34.216Z,70.63
2017-12-10T22:57:39.499Z,73.55
2017-12-10T23:00:08.591Z,74.74
2017-12-10T23:02:37.679Z,76.06
2017-12-10T23:07:41.998Z,73.60
2017-12-10T23:10:11.074Z,73.69
2017-12-10T23:12:44.899Z,73.92
2017-12-10T23:15:17.493Z,73.62
2017-12-10T23:17:46.533Z,72.96
2017-12-10T23:20:26.932Z,73.86
2017-12-10T23:25:31.006Z,75.87
2017-12-10T23:30:35.317Z,76.38
2017-12-10T23:33:04.345Z,76.73
2017-12-10T23:35:33.391Z,77.47
2017-12-10T23:38:03.345Z,77.08
2017-12-10T23:40:32.369Z,76.67
2017-12-10T23:43:01.580Z,76.72
2017-12-10T23:45:30.649Z,77.10
2017-12-10T23:48:05.703Z,77.92
2017-12-10T23:50:34.718Z,78.03
2017-12-10T23:53:11.300Z,78.25
2017-12-10T23:55:40.327Z,78.81
2017-12-10T23:58:09.354Z,78.69
